Time;durP1;ratioP1;P1;durP2;ratioP2;P2;SDS_P1;SDS_P2;PMS_P1;PMS_P2;Temp;Humidity;BMP_temperature;BMP_pressure;BME280_temperature;BME280_humidity;BME280_pressure;Samples;Min_cycle;Max_cycle;Signal;HPM_P1;HPM_P2
2021/04/24 00:01:42;;;;;;;5.50;4.97;;;10.40;54.00;;;;;;10503260;28;20311;-81
2021/04/24 00:06:43;;;;;;;5.73;5.13;;;10.30;54.70;;;;;;10506327;28;20199;-81
2021/04/24 00:11:47;;;;;;;6.27;5.00;;;10.20;54.80;;;;;;10503039;28;20258;-82
2021/04/24 00:16:49;;;;;;;5.90;4.80;;;10.10;54.90;;;;;;10504063;28;20208;-82
2021/04/24 00:21:50;;;;;;;6.20;4.60;;;10.10;55.30;;;;;;10537015;28;20216;-82
2021/04/24 00:26:53;;;;;;;7.87;5.27;;;10.00;55.50;;;;;;10512228;28;20639;-81
2021/04/24 00:31:54;;;;;;;6.20;4.80;;;9.90;56.70;;;;;;10518471;28;20225;-81
2021/04/24 00:36:56;;;;;;;6.57;5.90;;;9.90;57.10;;;;;;10522843;28;20229;-82
2021/04/24 00:41:59;;;;;;;5.63;5.13;;;9.80;57.80;;;;;;10545180;28;20244;-83
2021/04/24 00:47:00;;;;;;;6.30;5.50;;;9.70;57.70;;;;;;10516774;28;20192;-82
2021/04/24 00:52:02;;;;;;;7.10;5.27;;;9.60;58.20;;;;;;10546079;28;20576;-81
2021/04/24 00:57:07;;;;;;;7.50;5.87;;;9.50;58.20;;;;;;10528456;28;20227;-80
2021/04/24 01:02:09;;;;;;;6.20;5.60;;;9.50;58.60;;;;;;10531272;28;20267;-80
2021/04/24 01:07:11;;;;;;;7.03;5.10;;;9.40;58.90;;;;;;10506641;28;20204;-80
2021/04/24 01:12:14;;;;;;;6.93;5.50;;;9.30;59.10;;;;;;10523703;28;20224;-81
2021/04/24 01:17:15;;;;;;;6.90;5.97;;;9.30;59.20;;;;;;10504055;28;20220;-81
2021/04/24 01:22:18;;;;;;;8.23;6.03;;;9.20;59.30;;;;;;10542670;28;20223;-80
2021/04/24 01:27:20;;;;;;;7.53;5.23;;;9.10;59.50;;;;;;10513721;28;20252;-80
2021/04/24 01:32:21;;;;;;;6.30;5.70;;;9.00;59.60;;;;;;10485684;28;20220;-81
2021/04/24 01:37:24;;;;;;;6.13;5.57;;;9.00;60.30;;;;;;10517406;28;20721;-80
2021/04/24 01:42:25;;;;;;;7.03;5.80;;;8.90;59.70;;;;;;10505190;28;20220;-80
2021/04/24 01:47:27;;;;;;;8.50;6.13;;;8.80;59.80;;;;;;10487011;28;20208;-80
2021/04/24 01:52:33;;;;;;;6.70;6.00;;;8.80;60.50;;;;;;10495822;28;20711;-80
2021/04/24 01:57:35;;;;;;;8.20;6.30;;;8.80;61.10;;;;;;10517567;28;20223;-80
2021/04/24 02:02:37;;;;;;;7.07;5.57;;;8.70;60.60;;;;;;10513476;28;20220;-80
2021/04/24 02:07:39;;;;;;;7.43;6.20;;;8.70;60.60;;;;;;10529302;28;20207;-81
2021/04/24 02:12:41;;;;;;;8.07;6.43;;;8.60;60.60;;;;;;10537013;28;20299;-80
2021/04/24 02:17:43;;;;;;;8.27;5.73;;;8.60;60.90;;;;;;10542180;28;20213;-80
2021/04/24 02:22:45;;;;;;;12.30;7.43;;;8.50;61.40;;;;;;10524648;28;20211;-80
2021/04/24 02:27:47;;;;;;;6.13;5.53;;;8.50;61.00;;;;;;10524840;28;20282;-80
2021/04/24 02:32:49;;;;;;;8.27;5.90;;;8.40;61.40;;;;;;10495850;28;20315;-80
2021/04/24 02:37:52;;;;;;;9.80;6.10;;;8.40;61.60;;;;;;10520131;28;20307;-80
2021/04/24 02:42:53;;;;;;;7.17;6.00;;;8.40;61.40;;;;;;10505699;28;20579;-81
2021/04/24 02:47:55;;;;;;;7.33;6.57;;;8.40;61.60;;;;;;10491029;28;20262;-80
2021/04/24 02:52:58;;;;;;;12.50;6.50;;;8.40;61.60;;;;;;10502255;28;20263;-80
2021/04/24 02:57:59;;;;;;;8.90;6.73;;;8.30;61.80;;;;;;10501055;28;20770;-80
2021/04/24 03:03:03;;;;;;;6.67;5.97;;;8.20;61.90;;;;;;10541567;28;20318;-80
2021/04/24 03:08:07;;;;;;;7.67;6.83;;;8.20;62.40;;;;;;10517343;28;20686;-80
2021/04/24 03:13:10;;;;;;;8.63;5.90;;;8.20;62.60;;;;;;10524899;28;20231;-80
2021/04/24 03:18:11;;;;;;;11.93;6.63;;;8.20;62.70;;;;;;10540106;28;20213;-79
2021/04/24 03:23:14;;;;;;;7.73;6.93;;;8.20;62.50;;;;;;10534530;28;20246;-80
2021/04/24 03:28:15;;;;;;;7.27;6.50;;;8.20;62.50;;;;;;10537332;28;20205;-81
2021/04/24 03:33:17;;;;;;;7.53;6.60;;;8.10;62.80;;;;;;10514368;28;20232;-81
2021/04/24 03:38:19;;;;;;;7.63;6.80;;;8.10;63.00;;;;;;10513132;28;20239;-79
2021/04/24 03:43:21;;;;;;;6.50;5.90;;;8.00;63.00;;;;;;10544140;28;20230;-81
2021/04/24 03:48:22;;;;;;;8.70;6.87;;;8.00;63.30;;;;;;10516145;28;20287;-80
2021/04/24 03:53:25;;;;;;;8.00;6.47;;;8.00;63.60;;;;;;10527844;28;20311;-78
2021/04/24 03:58:27;;;;;;;7.20;6.40;;;7.90;63.60;;;;;;10533044;28;20220;-79
2021/04/24 04:03:28;;;;;;;9.87;6.30;;;7.90;63.70;;;;;;10538780;28;20691;-82
2021/04/24 04:08:31;;;;;;;8.60;6.73;;;7.90;64.10;;;;;;10520222;28;20268;-80
2021/04/24 04:13:32;;;;;;;8.13;5.87;;;7.90;64.10;;;;;;10528371;28;20229;-81
2021/04/24 04:18:36;;;;;;;6.80;5.93;;;7.80;64.30;;;;;;10535849;28;20252;-80
2021/04/24 04:23:38;;;;;;;11.17;7.27;;;7.80;64.40;;;;;;10534343;28;20278;-81
2021/04/24 04:28:40;;;;;;;8.33;6.10;;;7.80;64.50;;;;;;10542354;28;20598;-81
2021/04/24 04:33:41;;;;;;;8.77;6.83;;;7.70;64.40;;;;;;10549862;28;20223;-80
2021/04/24 04:38:44;;;;;;;8.50;6.47;;;7.70;64.80;;;;;;10545244;28;20215;-79
2021/04/24 04:43:46;;;;;;;7.37;6.63;;;7.70;65.00;;;;;;10544997;28;20228;-79
2021/04/24 04:48:47;;;;;;;11.27;6.97;;;7.70;65.10;;;;;;10535334;28;20207;-82
2021/04/24 04:53:50;;;;;;;8.83;7.77;;;7.70;65.00;;;;;;10553249;28;20219;-81
2021/04/24 04:58:51;;;;;;;8.90;7.73;;;7.70;65.00;;;;;;10531112;28;20600;-81
2021/04/24 05:03:53;;;;;;;7.60;6.80;;;7.80;65.10;;;;;;10546943;28;20223;-81
2021/04/24 05:08:55;;;;;;;9.10;7.20;;;7.80;65.30;;;;;;10539040;28;20778;-81
2021/04/24 05:13:57;;;;;;;9.53;8.50;;;7.80;65.30;;;;;;10559921;28;20232;-81
2021/04/24 05:18:59;;;;;;;9.87;8.30;;;7.80;65.20;;;;;;10552968;28;20224;-81
2021/04/24 05:24:01;;;;;;;13.90;8.90;;;7.90;65.30;;;;;;10521761;28;20257;-81
2021/04/24 05:29:03;;;;;;;8.47;7.67;;;7.90;65.40;;;;;;10546692;28;20193;-81
2021/04/24 05:34:05;;;;;;;8.70;7.60;;;7.80;65.40;;;;;;10528132;28;20224;-81
2021/04/24 05:39:09;;;;;;;9.70;7.80;;;7.90;65.90;;;;;;10554056;28;20258;-81
2021/04/24 05:44:10;;;;;;;8.20;7.17;;;7.90;65.80;;;;;;10532264;28;20220;-81
2021/04/24 05:49:12;;;;;;;8.47;7.07;;;8.00;65.90;;;;;;10538731;28;20230;-81
2021/04/24 05:54:14;;;;;;;13.03;7.83;;;8.10;65.80;;;;;;10563634;28;20215;-81
2021/04/24 05:59:16;;;;;;;13.27;6.60;;;8.20;65.70;;;;;;10543792;28;20225;-82
2021/04/24 06:04:18;;;;;;;9.77;8.77;;;8.30;65.80;;;;;;10553676;28;20303;-81
2021/04/24 06:09:20;;;;;;;11.43;8.67;;;8.40;65.40;;;;;;10524861;28;20188;-81
2021/04/24 06:14:22;;;;;;;9.53;7.43;;;8.50;65.00;;;;;;10532855;28;20219;-82
2021/04/24 06:19:23;;;;;;;9.67;7.83;;;8.70;65.20;;;;;;10554805;28;20234;-82
2021/04/24 06:24:26;;;;;;;10.33;8.00;;;8.80;65.20;;;;;;10536141;28;20259;-82
2021/04/24 06:29:28;;;;;;;8.70;7.50;;;8.90;64.60;;;;;;10524045;28;20470;-82
2021/04/24 06:34:29;;;;;;;9.40;7.37;;;9.00;64.20;;;;;;10518880;28;20378;-81
2021/04/24 06:39:32;;;;;;;10.17;8.20;;;9.20;64.40;;;;;;10527165;28;20691;-80
2021/04/24 06:44:34;;;;;;;10.23;8.23;;;9.30;64.40;;;;;;10524818;28;20261;-83
2021/04/24 06:55:08;;;;;;;11.50;9.03;;;9.60;63.80;;;;;;10395433;28;20207;-84
2021/04/24 07:00:11;;;;;;;13.47;8.67;;;9.70;63.70;;;;;;10396350;28;20222;-82
2021/04/24 07:05:14;;;;;;;13.67;9.73;;;9.80;63.70;;;;;;10373799;28;20211;-82
2021/04/24 07:10:19;;;;;;;9.90;8.33;;;10.00;62.80;;;;;;10382596;28;20245;-82
2021/04/24 07:15:21;;;;;;;11.43;9.20;;;10.10;63.60;;;;;;10376006;28;20298;-83
2021/04/24 07:20:23;;;;;;;10.63;9.30;;;10.30;63.20;;;;;;10387411;28;20226;-83
2021/04/24 07:25:25;;;;;;;12.03;9.53;;;10.50;62.90;;;;;;10367026;28;20214;-82
2021/04/24 07:30:29;;;;;;;15.73;10.00;;;10.60;62.70;;;;;;10394573;28;20222;-82
2021/04/24 07:35:31;;;;;;;15.80;10.10;;;11.00;60.70;;;;;;10359861;28;20205;-82
2021/04/24 07:40:33;;;;;;;9.97;9.07;;;11.60;59.20;;;;;;10365011;28;20682;-82
2021/04/24 07:45:35;;;;;;;11.33;8.83;;;12.10;59.80;;;;;;10351982;28;20302;-81
2021/04/24 07:50:37;;;;;;;12.30;9.40;;;12.60;59.10;;;;;;10352750;28;20222;-81
2021/04/24 07:55:40;;;;;;;9.60;7.70;;;13.10;57.60;;;;;;10388835;28;20207;-81
2021/04/24 08:00:42;;;;;;;8.77;7.87;;;13.60;57.50;;;;;;10399753;28;20226;-81
2021/04/24 08:05:44;;;;;;;9.10;7.53;;;14.10;56.10;;;;;;10400293;28;20690;-81
2021/04/24 08:10:46;;;;;;;10.90;8.00;;;14.50;55.20;;;;;;10373427;28;20268;-81
2021/04/24 08:15:49;;;;;;;12.63;8.30;;;14.80;54.30;;;;;;10395490;28;20667;-82
2021/04/24 08:20:50;;;;;;;12.13;8.20;;;15.20;53.40;;;;;;10374471;28;20280;-82
2021/04/24 08:25:53;;;;;;;8.17;7.10;;;15.60;53.60;;;;;;10378901;28;20213;-82
2021/04/24 08:30:55;;;;;;;10.43;7.00;;;16.00;52.80;;;;;;10395096;28;20223;-83
2021/04/24 08:35:58;;;;;;;8.23;6.30;;;16.40;52.00;;;;;;10363584;28;20210;-83
2021/04/24 08:41:03;;;;;;;10.10;7.23;;;16.80;51.40;;;;;;10369136;28;20273;-82
2021/04/24 08:46:06;;;;;;;13.23;7.63;;;17.20;50.60;;;;;;10380287;28;20218;-82
2021/04/24 08:51:08;;;;;;;8.73;6.27;;;17.60;49.80;;;;;;10405162;28;20246;-82
2021/04/24 08:56:10;;;;;;;7.23;6.47;;;18.00;49.00;;;;;;10396197;28;20257;-82
2021/04/24 09:01:12;;;;;;;11.07;6.97;;;18.30;47.90;;;;;;10380643;28;20269;-82
2021/04/24 09:06:15;;;;;;;7.23;6.53;;;18.50;47.50;;;;;;10379219;28;20304;-80
2021/04/24 09:11:17;;;;;;;9.30;6.70;;;18.70;48.70;;;;;;10399071;28;20695;-82
2021/04/24 09:16:23;;;;;;;8.57;6.77;;;18.90;48.60;;;;;;10386975;28;20249;-83
2021/04/24 09:21:26;;;;;;;7.37;6.67;;;19.00;46.60;;;;;;10357274;28;20230;-82
2021/04/24 09:26:29;;;;;;;10.10;7.60;;;19.20;45.00;;;;;;10338275;28;20214;-83
2021/04/24 09:31:32;;;;;;;8.07;5.30;;;19.50;45.30;;;;;;10356513;28;20602;-82
2021/04/24 09:36:35;;;;;;;7.60;6.90;;;19.80;43.80;;;;;;10348985;28;20210;-82
2021/04/24 09:41:41;;;;;;;12.20;7.23;;;20.00;42.20;;;;;;10367330;28;20246;-83
2021/04/24 09:46:52;;;;;;;8.57;6.90;;;20.20;40.90;;;;;;10367254;28;20218;-82
2021/04/24 09:51:55;;;;;;;7.90;6.87;;;20.40;39.30;;;;;;10346324;28;20338;-83
2021/04/24 09:57:04;;;;;;;7.30;6.60;;;20.60;40.90;;;;;;10350082;28;20302;-83
2021/04/24 10:02:07;;;;;;;12.17;8.33;;;20.70;40.50;;;;;;10349470;28;20282;-82
2021/04/24 10:07:08;;;;;;;8.43;7.47;;;20.90;38.10;;;;;;10333445;28;20214;-83
2021/04/24 10:12:11;;;;;;;10.40;7.30;;;20.90;37.60;;;;;;10367564;28;20226;-82
2021/04/24 10:17:15;;;;;;;9.30;7.50;;;20.60;39.00;;;;;;10364993;28;20229;-81
2021/04/24 10:22:19;;;;;;;10.10;7.43;;;20.20;39.40;;;;;;10379075;28;20350;-81
2021/04/24 10:27:22;;;;;;;12.17;6.47;;;19.70;38.80;;;;;;10366144;28;20222;-81
2021/04/24 10:32:25;;;;;;;11.13;6.30;;;19.30;39.00;;;;;;10347173;28;20245;-82
2021/04/24 10:37:27;;;;;;;11.43;7.80;;;18.90;38.40;;;;;;10349378;28;20615;-82
2021/04/24 10:42:30;;;;;;;10.23;6.67;;;18.70;38.70;;;;;;10348788;28;20258;-82
2021/04/24 10:47:44;;;;;;;8.60;6.87;;;18.40;39.30;;;;;;10359320;28;20206;-84
2021/04/24 10:52:46;;;;;;;8.67;7.87;;;18.10;41.20;;;;;;10364634;28;20234;-84
2021/04/24 10:57:51;;;;;;;11.40;6.80;;;18.00;40.30;;;;;;10348529;28;20214;-81
2021/04/24 11:02:55;;;;;;;10.63;7.80;;;17.90;40.50;;;;;;10386165;28;20223;-80
2021/04/24 11:08:22;;;;;;;8.60;6.83;;;17.90;39.70;;;;;;10369591;28;20585;-82
2021/04/24 11:13:28;;;;;;;12.20;8.30;;;17.80;40.90;;;;;;10366572;28;20238;-82
2021/04/24 11:18:30;;;;;;;12.13;8.63;;;17.80;39.10;;;;;;10340152;28;20242;-82
2021/04/24 11:24:00;;;;;;;9.40;7.67;;;17.70;39.50;;;;;;10373904;28;20670;-82
2021/04/24 11:29:08;;;;;;;14.53;7.93;;;17.60;38.60;;;;;;10377834;28;20203;-81
2021/04/24 11:34:23;;;;;;;9.10;7.07;;;17.60;40.20;;;;;;10391151;28;20221;-81
2021/04/24 11:39:25;;;;;;;8.37;6.73;;;17.50;40.60;;;;;;10379706;28;20399;-83
2021/04/24 11:44:50;;;;;;;7.67;6.93;;;17.50;39.80;;;;;;10344820;28;20341;-83
2021/04/24 11:49:52;;;;;;;10.77;7.70;;;17.50;39.70;;;;;;10361355;28;20208;-81
2021/04/24 11:54:53;;;;;;;7.47;6.70;;;17.50;39.60;;;;;;10387818;28;20280;-81
2021/04/24 11:59:56;;;;;;;11.50;7.40;;;17.50;39.40;;;;;;10363452;28;20585;-82
2021/04/24 12:05:08;;;;;;;8.40;6.27;;;17.40;39.30;;;;;;10347701;28;20262;-82
2021/04/24 12:10:12;;;;;;;8.23;6.30;;;17.40;38.70;;;;;;10389302;28;20218;-82
2021/04/24 12:15:18;;;;;;;9.10;7.10;;;17.40;39.10;;;;;;10374925;28;20240;-82
2021/04/24 12:20:21;;;;;;;9.30;6.60;;;17.40;37.80;;;;;;10386791;28;20712;-82
2021/04/24 12:25:30;;;;;;;8.27;7.20;;;17.40;37.40;;;;;;10365552;28;20203;-82
2021/04/24 12:30:34;;;;;;;9.30;6.90;;;17.30;38.00;;;;;;10394050;28;20226;-82
2021/04/24 12:35:37;;;;;;;8.60;7.13;;;17.30;39.50;;;;;;10350269;28;20593;-82
2021/04/24 12:40:41;;;;;;;8.93;8.03;;;17.20;40.40;;;;;;10388239;28;20369;-82
2021/04/24 12:45:46;;;;;;;10.47;8.00;;;17.20;39.90;;;;;;10374538;28;20199;-82
2021/04/24 12:50:50;;;;;;;9.10;7.27;;;17.30;39.10;;;;;;10401172;28;20237;-82
2021/04/24 12:56:03;;;;;;;10.03;7.63;;;17.30;38.90;;;;;;10403861;28;20230;-82
2021/04/24 13:01:13;;;;;;;9.83;7.23;;;17.40;39.70;;;;;;10389753;28;20607;-83
2021/04/24 13:06:17;;;;;;;10.67;7.87;;;17.40;38.30;;;;;;10378733;28;20205;-82
2021/04/24 13:11:22;;;;;;;7.60;6.77;;;17.50;38.70;;;;;;10387968;28;20829;-82
2021/04/24 13:16:32;;;;;;;6.70;5.57;;;17.50;38.70;;;;;;10386793;28;20223;-82
2021/04/24 13:21:36;;;;;;;9.40;7.10;;;17.60;40.20;;;;;;10402922;28;20258;-82
2021/04/24 13:26:41;;;;;;;7.33;5.87;;;17.70;39.30;;;;;;10390118;28;20202;-82
2021/04/24 13:31:45;;;;;;;7.63;6.83;;;17.70;38.20;;;;;;10389850;28;20231;-83
2021/04/24 13:37:01;;;;;;;9.27;6.53;;;17.80;37.20;;;;;;10384492;28;20211;-83
2021/04/24 13:42:11;;;;;;;7.13;6.43;;;17.80;36.60;;;;;;10362730;28;20229;-84
2021/04/24 13:47:26;;;;;;;10.53;6.93;;;17.90;36.90;;;;;;10392047;28;20206;-81
2021/04/24 13:52:28;;;;;;;7.10;6.00;;;18.00;37.00;;;;;;10383741;28;20588;-82
2021/04/24 13:57:30;;;;;;;9.17;7.17;;;18.00;38.40;;;;;;10402558;28;20215;-81
2021/04/24 14:02:33;;;;;;;9.97;6.47;;;18.00;36.50;;;;;;10391592;28;20698;-83
2021/04/24 14:07:34;;;;;;;8.23;6.80;;;18.10;35.70;;;;;;10377126;28;20203;-81
2021/04/24 14:12:36;;;;;;;7.27;6.57;;;18.10;36.20;;;;;;10403788;28;20218;-82
2021/04/24 14:17:39;;;;;;;10.90;6.63;;;18.00;37.70;;;;;;10401120;28;20305;-82
2021/04/24 14:22:43;;;;;;;8.10;7.10;;;18.00;36.50;;;;;;10401376;28;20234;-81
2021/04/24 14:27:46;;;;;;;8.00;7.20;;;18.00;36.80;;;;;;10397939;28;20195;-81
2021/04/24 14:32:49;;;;;;;11.07;8.23;;;18.10;37.40;;;;;;10399678;28;20218;-81
2021/04/24 14:37:50;;;;;;;9.60;8.37;;;18.10;37.80;;;;;;10390152;28;20234;-81
2021/04/24 14:42:52;;;;;;;10.43;7.70;;;18.20;37.00;;;;;;10380826;28;20234;-82
2021/04/24 14:47:55;;;;;;;14.00;7.07;;;18.20;37.30;;;;;;10400629;28;20655;-82
2021/04/24 14:52:57;;;;;;;9.90;8.13;;;18.10;37.60;;;;;;10383847;28;20242;-82
2021/04/24 14:58:01;;;;;;;8.50;7.23;;;18.00;38.10;;;;;;10389763;28;20312;-83
2021/04/24 15:03:04;;;;;;;8.07;6.30;;;17.90;37.40;;;;;;10355984;28;20230;-83
2021/04/24 15:08:07;;;;;;;9.90;6.50;;;17.90;36.90;;;;;;10377253;28;20231;-82
2021/04/24 15:13:09;;;;;;;8.53;7.00;;;17.90;38.10;;;;;;10378801;28;20240;-81
2021/04/24 15:18:13;;;;;;;9.53;6.93;;;17.90;37.10;;;;;;10374179;28;20770;-83
2021/04/24 15:23:15;;;;;;;8.87;6.60;;;17.80;37.10;;;;;;10357249;28;20265;-82
2021/04/24 15:28:17;;;;;;;6.97;5.60;;;17.80;36.60;;;;;;10362699;28;20203;-83
2021/04/24 15:33:23;;;;;;;7.00;6.10;;;17.90;37.00;;;;;;10385723;28;20694;-83
2021/04/24 15:38:26;;;;;;;6.53;5.87;;;18.10;36.40;;;;;;10371728;28;20234;-82
2021/04/24 15:43:33;;;;;;;11.97;6.00;;;18.20;35.80;;;;;;10379635;28;20245;-82
2021/04/24 15:48:42;;;;;;;9.37;6.10;;;18.10;35.00;;;;;;10355207;28;20210;-82
2021/04/24 15:53:54;;;;;;;8.43;6.57;;;18.00;35.30;;;;;;10361453;28;20242;-82
2021/04/24 15:58:58;;;;;;;7.83;5.60;;;17.90;35.60;;;;;;10357401;28;20229;-82
2021/04/24 16:04:01;;;;;;;5.40;4.90;;;17.80;34.80;;;;;;10381850;28;20222;-82
2021/04/24 16:09:03;;;;;;;6.27;5.03;;;17.80;34.50;;;;;;10391519;28;20685;-81
2021/04/24 16:14:09;;;;;;;5.57;4.93;;;17.70;34.50;;;;;;10386494;28;20230;-83
2021/04/24 16:19:16;;;;;;;6.30;4.97;;;17.70;35.90;;;;;;10411953;28;20218;-83
2021/04/24 16:24:24;;;;;;;5.43;4.93;;;17.60;36.50;;;;;;10379931;28;20230;-82
2021/04/24 16:29:26;;;;;;;5.10;4.20;;;17.60;37.00;;;;;;10368922;28;20245;-82
2021/04/24 16:34:33;;;;;;;4.53;4.10;;;17.50;35.20;;;;;;10388979;28;20229;-82
2021/04/24 16:39:46;;;;;;;8.90;4.40;;;17.60;35.90;;;;;;10379686;28;20206;-83
2021/04/24 16:44:59;;;;;;;3.97;3.60;;;17.50;36.60;;;;;;10362600;28;20213;-83
2021/04/24 16:51:14;;;;;;;4.23;3.90;;;17.50;37.00;;;;;;10390691;28;20242;-83
2021/04/24 16:56:17;;;;;;;4.13;3.63;;;17.40;37.30;;;;;;10382118;28;20683;-83
2021/04/24 17:01:19;;;;;;;4.53;3.57;;;17.40;37.00;;;;;;10368283;28;20254;-83
2021/04/24 17:06:21;;;;;;;4.00;3.60;;;17.30;37.20;;;;;;10403654;28;20209;-83
2021/04/24 17:11:28;;;;;;;5.17;4.17;;;17.30;36.40;;;;;;10369809;28;20321;-83
2021/04/24 17:16:30;;;;;;;4.80;4.27;;;17.30;36.90;;;;;;10391709;28;20356;-83
2021/04/24 17:21:32;;;;;;;5.10;3.53;;;17.20;38.30;;;;;;10361324;28;20235;-83
2021/04/24 17:26:35;;;;;;;6.53;3.80;;;17.20;39.70;;;;;;10374900;28;20206;-82
2021/04/24 17:31:37;;;;;;;6.30;3.27;;;17.10;39.80;;;;;;10368064;28;20241;-84
2021/04/24 17:36:39;;;;;;;4.17;3.70;;;17.00;38.00;;;;;;10357815;28;20585;-82
2021/04/24 17:41:42;;;;;;;5.90;3.80;;;17.00;39.50;;;;;;10389877;28;20254;-82
2021/04/24 17:46:46;;;;;;;8.30;7.23;;;16.90;38.60;;;;;;10386147;28;20217;-82
2021/04/24 17:51:48;;;;;;;4.10;3.27;;;16.90;38.80;;;;;;10358967;28;20606;-83
2021/04/24 17:56:51;;;;;;;3.33;3.03;;;16.80;39.80;;;;;;10390396;28;20227;-84
2021/04/24 18:01:53;;;;;;;4.57;3.00;;;16.80;39.20;;;;;;10352150;28;20227;-84
2021/04/24 18:06:55;;;;;;;7.10;4.10;;;16.70;40.90;;;;;;10343167;28;20203;-82
2021/04/24 18:11:58;;;;;;;3.97;3.43;;;16.60;43.20;;;;;;10357978;28;20226;-82
2021/04/24 18:16:59;;;;;;;4.57;3.57;;;16.40;42.90;;;;;;10354731;28;20207;-84
2021/04/24 18:22:02;;;;;;;4.83;4.40;;;16.30;43.10;;;;;;10365108;28;20305;-82
2021/04/24 18:27:06;;;;;;;4.20;3.40;;;16.10;44.00;;;;;;10331616;28;20651;-82
2021/04/24 18:32:08;;;;;;;4.13;3.00;;;16.00;46.70;;;;;;10331876;28;20269;-81
2021/04/24 18:37:10;;;;;;;3.33;3.03;;;15.90;44.60;;;;;;10346431;28;20675;-83
2021/04/24 18:42:12;;;;;;;8.50;5.33;;;15.80;44.00;;;;;;10366524;28;20329;-82
2021/04/24 18:47:14;;;;;;;4.23;3.83;;;15.80;43.80;;;;;;10351564;28;20714;-80
2021/04/24 18:52:16;;;;;;;5.20;3.60;;;15.80;44.30;;;;;;10331262;28;20936;-80
2021/04/24 18:57:19;;;;;;;5.27;4.10;;;15.70;44.60;;;;;;10362150;28;21222;-80
2021/04/24 19:02:21;;;;;;;6.53;3.53;;;15.70;44.90;;;;;;10364074;28;20230;-81
2021/04/24 19:07:23;;;;;;;3.93;3.63;;;15.60;45.30;;;;;;10364605;28;20237;-81
2021/04/24 19:12:28;;;;;;;6.70;4.40;;;15.40;45.50;;;;;;10370468;28;20377;-80
2021/04/24 19:17:30;;;;;;;4.00;3.20;;;15.30;46.40;;;;;;10382345;28;20565;-83
2021/04/24 19:22:32;;;;;;;11.93;3.93;;;15.20;45.80;;;;;;10389211;28;20214;-82
2021/04/24 19:27:34;;;;;;;6.43;4.87;;;15.20;46.50;;;;;;10335965;28;20206;-80
2021/04/24 19:32:36;;;;;;;5.37;4.20;;;15.20;48.40;;;;;;10353982;28;20234;-82
2021/04/24 19:37:38;;;;;;;8.27;4.60;;;15.20;48.50;;;;;;10352736;28;20273;-80
2021/04/24 19:42:42;;;;;;;5.40;4.27;;;15.20;50.40;;;;;;10353337;28;20245;-81
2021/04/24 19:47:45;;;;;;;6.27;5.50;;;15.10;49.40;;;;;;10352333;28;20219;-82
2021/04/24 19:52:47;;;;;;;5.13;4.63;;;15.10;51.00;;;;;;10348671;28;20238;-82
2021/04/24 19:57:51;;;;;;;6.10;4.80;;;15.00;48.80;;;;;;10350104;28;20329;-82
2021/04/24 20:02:54;;;;;;;10.50;4.80;;;15.00;49.80;;;;;;10365512;28;20317;-83
2021/04/24 20:07:58;;;;;;;5.73;4.50;;;14.90;49.00;;;;;;10348489;28;20286;-83
2021/04/24 20:13:01;;;;;;;5.17;4.60;;;14.90;48.80;;;;;;10371280;28;20230;-84
2021/04/24 20:18:03;;;;;;;5.30;4.80;;;14.80;49.30;;;;;;10367282;28;20223;-86
2021/04/24 20:23:06;;;;;;;4.30;3.90;;;14.70;49.40;;;;;;10349470;28;20258;-82
2021/04/24 20:28:08;;;;;;;8.00;4.93;;;14.60;50.00;;;;;;10363773;28;20254;-84
2021/04/24 20:33:10;;;;;;;8.70;5.43;;;14.40;50.10;;;;;;10371281;28;20230;-83
2021/04/24 20:38:12;;;;;;;5.00;4.50;;;14.30;50.90;;;;;;10357407;28;20222;-82
2021/04/24 20:43:15;;;;;;;7.10;5.07;;;14.20;49.40;;;;;;10366207;28;20230;-82
2021/04/24 20:48:17;;;;;;;5.63;4.90;;;14.20;49.30;;;;;;10373363;28;20446;-82
2021/04/24 20:53:24;;;;;;;6.23;4.83;;;14.20;49.20;;;;;;10366042;28;20332;-81
2021/04/24 20:58:39;;;;;;;5.90;4.93;;;14.20;50.60;;;;;;10360806;28;20227;-83
2021/04/24 21:03:45;;;;;;;6.10;4.60;;;14.20;48.60;;;;;;10373805;28;20236;-81
2021/04/24 21:08:47;;;;;;;7.27;5.20;;;14.10;49.00;;;;;;10351015;28;20233;-83
2021/04/24 21:13:50;;;;;;;7.60;5.57;;;14.10;49.90;;;;;;10384072;28;20229;-81
2021/04/24 21:18:53;;;;;;;7.43;5.17;;;14.00;49.30;;;;;;10350124;28;20245;-85
2021/04/24 21:23:57;;;;;;;8.03;5.23;;;14.00;48.70;;;;;;10336072;28;20285;-81
2021/04/24 21:29:04;;;;;;;6.03;4.70;;;14.00;48.70;;;;;;10376046;28;20206;-83
2021/04/24 21:34:07;;;;;;;8.03;5.00;;;13.90;51.10;;;;;;10462762;22;20635;-78
2021/04/24 21:39:09;;;;;;;5.70;4.80;;;13.90;52.00;;;;;;10438699;28;20221;-78
2021/04/24 21:44:14;;;;;;;6.97;5.40;;;13.80;51.20;;;;;;10441644;28;20701;-78
2021/04/24 21:49:16;;;;;;;6.53;5.23;;;13.80;49.90;;;;;;10420476;28;20202;-78
2021/04/24 21:54:18;;;;;;;6.57;5.60;;;13.70;50.00;;;;;;10419613;28;20225;-78
2021/04/24 21:59:22;;;;;;;6.10;5.23;;;13.50;50.40;;;;;;10423686;28;20210;-78
2021/04/24 22:04:24;;;;;;;6.07;5.13;;;13.40;50.60;;;;;;10439571;28;20235;-78
2021/04/24 22:09:26;;;;;;;6.60;5.50;;;13.20;51.10;;;;;;10456372;28;20216;-77
2021/04/24 22:14:28;;;;;;;6.63;5.37;;;13.10;51.40;;;;;;10455022;28;20232;-78
2021/04/24 22:19:30;;;;;;;8.53;5.10;;;13.00;52.50;;;;;;10455425;28;20228;-78
2021/04/24 22:24:33;;;;;;;5.63;4.70;;;12.80;51.90;;;;;;10455418;28;20280;-77
2021/04/24 22:29:35;;;;;;;5.73;5.03;;;12.70;52.70;;;;;;10454837;28;20728;-78
2021/04/24 22:34:37;;;;;;;6.83;5.17;;;12.60;52.80;;;;;;10437145;28;20253;-78
2021/04/24 22:39:40;;;;;;;7.33;5.80;;;12.40;53.50;;;;;;10456885;28;20335;-77
2021/04/24 22:44:42;;;;;;;6.10;5.40;;;12.30;53.60;;;;;;10437417;28;20266;-77
2021/04/24 22:49:44;;;;;;;5.97;5.37;;;12.30;54.00;;;;;;10454700;28;20189;-77
2021/04/24 22:54:45;;;;;;;6.00;5.40;;;12.20;54.20;;;;;;10437628;28;20315;-78
2021/04/24 22:59:48;;;;;;;5.97;5.10;;;12.10;54.80;;;;;;10457816;28;20681;-77
2021/04/24 23:04:50;;;;;;;5.83;5.23;;;12.00;54.80;;;;;;10454208;28;20593;-78
2021/04/24 23:09:51;;;;;;;6.33;5.03;;;11.90;55.20;;;;;;10427238;28;20930;-77
2021/04/24 23:14:54;;;;;;;7.07;5.60;;;11.80;55.50;;;;;;10417265;28;20232;-77
2021/04/24 23:19:56;;;;;;;6.00;5.00;;;11.70;55.70;;;;;;10435049;28;20239;-78
2021/04/24 23:24:58;;;;;;;5.57;4.50;;;11.60;56.00;;;;;;10432011;28;20399;-78
2021/04/24 23:30:00;;;;;;;7.10;5.03;;;11.50;56.40;;;;;;10436032;28;20201;-78
2021/04/24 23:35:02;;;;;;;7.30;5.30;;;11.50;56.70;;;;;;10418672;28;20616;-78
2021/04/24 23:40:06;;;;;;;5.93;4.93;;;11.40;56.90;;;;;;10440202;28;20766;-78
2021/04/24 23:45:13;;;;;;;6.20;5.27;;;11.40;57.40;;;;;;10416767;28;20216;-78
2021/04/24 23:50:17;;;;;;;7.03;5.20;;;11.40;57.40;;;;;;10435750;28;20733;-78
2021/04/24 23:55:19;;;;;;;6.40;5.77;;;11.30;57.70;;;;;;10418300;28;20209;-78
